sensor_id;sensor_type;location;lat;lon;timestamp;P1;durP1;ratioP1;P2;durP2;ratioP2
73421;SDS011;61637;47.760;-122.022;2024-01-25T00:00:01;3.3;;;1.1;;
73421;SDS011;61637;47.760;-122.022;2024-01-25T00:02:01;4.4;;;1.0;;
73421;SDS011;61637;47.760;-122.022;2024-01-25T00:04:01;3.4;;;1.0;;
73421;SDS011;61637;47.760;-122.022;2024-01-25T00:06:01;3.9;;;1.0;;
73421;SDS011;61637;47.760;-122.022;2024-01-25T00:08:01;4.5;;;1.0;;
73421;SDS011;61637;47.760;-122.022;2024-01-25T00:10:01;3.2;;;0.9;;
73421;SDS011;61637;47.760;-122.022;2024-01-25T00:12:01;3.4;;;1.0;;
73421;SDS011;61637;47.760;-122.022;2024-01-25T00:14:01;5.1;;;1.1;;
73421;SDS011;61637;47.760;-122.022;2024-01-25T00:16:01;5.0;;;1.1;;
73421;SDS011;61637;47.760;-122.022;2024-01-25T00:18:01;4.1;;;1.2;;
73421;SDS011;61637;47.760;-122.022;2024-01-25T00:20:01;4.0;;;1.3;;
73421;SDS011;61637;47.760;-122.022;2024-01-25T00:22:01;5.9;;;1.3;;
73421;SDS011;61637;47.760;-122.022;2024-01-25T00:24:01;5.5;;;1.5;;
73421;SDS011;61637;47.760;-122.022;2024-01-25T00:26:01;6.4;;;1.8;;
73421;SDS011;61637;47.760;-122.022;2024-01-25T00:28:01;4.6;;;1.6;;
73421;SDS011;61637;47.760;-122.022;2024-01-25T00:30:01;3.2;;;1.1;;
73421;SDS011;61637;47.760;-122.022;2024-01-25T00:32:02;4.5;;;1.2;;
73421;SDS011;61637;47.760;-122.022;2024-01-25T00:34:02;3.2;;;1.0;;
73421;SDS011;61637;47.760;-122.022;2024-01-25T00:36:01;4.8;;;1.2;;
73421;SDS011;61637;47.760;-122.022;2024-01-25T00:38:01;6.2;;;1.2;;
73421;SDS011;61637;47.760;-122.022;2024-01-25T00:40:01;3.5;;;1.1;;
73421;SDS011;61637;47.760;-122.022;2024-01-25T00:42:05;4.2;;;1.1;;
73421;SDS011;61637;47.760;-122.022;2024-01-25T00:44:01;4.8;;;1.3;;
73421;SDS011;61637;47.760;-122.022;2024-01-25T00:46:01;4.2;;;1.0;;
73421;SDS011;61637;47.760;-122.022;2024-01-25T00:48:01;5.0;;;1.3;;
73421;SDS011;61637;47.760;-122.022;2024-01-25T00:50:02;6.1;;;1.1;;
73421;SDS011;61637;47.760;-122.022;2024-01-25T00:52:03;3.9;;;1.0;;
73421;SDS011;61637;47.760;-122.022;2024-01-25T00:54:01;3.8;;;1.0;;
73421;SDS011;61637;47.760;-122.022;2024-01-25T00:56:02;2.8;;;0.9;;
73421;SDS011;61637;47.760;-122.022;2024-01-25T00:58:01;5.4;;;0.9;;
73421;SDS011;61637;47.760;-122.022;2024-01-25T01:00:01;4.1;;;1.1;;
73421;SDS011;61637;47.760;-122.022;2024-01-25T01:02:03;4.2;;;0.9;;
73421;SDS011;61637;47.760;-122.022;2024-01-25T01:04:01;15.7;;;1.3;;
73421;SDS011;61637;47.760;-122.022;2024-01-25T01:06:01;11.8;;;1.0;;
73421;SDS011;61637;47.760;-122.022;2024-01-25T01:08:01;6.1;;;1.2;;
73421;SDS011;61637;47.760;-122.022;2024-01-25T01:10:01;4.6;;;1.0;;
73421;SDS011;61637;47.760;-122.022;2024-01-25T01:12:01;4.9;;;1.0;;
73421;SDS011;61637;47.760;-122.022;2024-01-25T01:14:01;4.4;;;1.2;;
73421;SDS011;61637;47.760;-122.022;2024-01-25T01:16:01;5.6;;;1.4;;
73421;SDS011;61637;47.760;-122.022;2024-01-25T01:18:01;5.0;;;1.4;;
73421;SDS011;61637;47.760;-122.022;2024-01-25T01:20:01;8.4;;;1.7;;
73421;SDS011;61637;47.760;-122.022;2024-01-25T01:22:01;6.6;;;1.5;;
73421;SDS011;61637;47.760;-122.022;2024-01-25T01:24:01;7.6;;;1.6;;
73421;SDS011;61637;47.760;-122.022;2024-01-25T01:26:01;7.4;;;1.6;;
73421;SDS011;61637;47.760;-122.022;2024-01-25T01:28:01;5.8;;;1.5;;
73421;SDS011;61637;47.760;-122.022;2024-01-25T01:30:01;7.7;;;1.5;;
73421;SDS011;61637;47.760;-122.022;2024-01-25T01:32:01;23.5;;;1.9;;
73421;SDS011;61637;47.760;-122.022;2024-01-25T01:34:01;56.8;;;2.3;;
73421;SDS011;61637;47.760;-122.022;2024-01-25T01:36:01;6.0;;;1.3;;
73421;SDS011;61637;47.760;-122.022;2024-01-25T01:38:01;7.5;;;1.2;;
73421;SDS011;61637;47.760;-122.022;2024-01-25T01:40:01;4.7;;;1.2;;
73421;SDS011;61637;47.760;-122.022;2024-01-25T01:42:01;5.3;;;1.2;;
73421;SDS011;61637;47.760;-122.022;2024-01-25T01:44:01;4.1;;;1.1;;
73421;SDS011;61637;47.760;-122.022;2024-01-25T01:46:07;4.3;;;1.2;;
73421;SDS011;61637;47.760;-122.022;2024-01-25T01:48:01;5.7;;;1.2;;
73421;SDS011;61637;47.760;-122.022;2024-01-25T01:50:01;4.0;;;1.1;;
73421;SDS011;61637;47.760;-122.022;2024-01-25T01:52:02;4.8;;;1.1;;
73421;SDS011;61637;47.760;-122.022;2024-01-25T01:54:02;6.7;;;1.2;;
73421;SDS011;61637;47.760;-122.022;2024-01-25T01:56:01;3.0;;;1.2;;
73421;SDS011;61637;47.760;-122.022;2024-01-25T01:58:01;9.5;;;1.4;;
73421;SDS011;61637;47.760;-122.022;2024-01-25T02:00:03;6.9;;;1.4;;
73421;SDS011;61637;47.760;-122.022;2024-01-25T02:02:01;4.5;;;1.1;;
73421;SDS011;61637;47.760;-122.022;2024-01-25T02:04:01;7.6;;;1.3;;
73421;SDS011;61637;47.760;-122.022;2024-01-25T02:06:01;4.3;;;1.1;;
73421;SDS011;61637;47.760;-122.022;2024-01-25T02:08:01;5.0;;;1.2;;
73421;SDS011;61637;47.760;-122.022;2024-01-25T02:10:01;5.1;;;1.4;;
73421;SDS011;61637;47.760;-122.022;2024-01-25T02:12:01;4.4;;;1.2;;
73421;SDS011;61637;47.760;-122.022;2024-01-25T02:14:01;5.0;;;1.2;;
73421;SDS011;61637;47.760;-122.022;2024-01-25T02:16:01;15.4;;;1.3;;
73421;SDS011;61637;47.760;-122.022;2024-01-25T02:18:01;57.8;;;2.1;;
73421;SDS011;61637;47.760;-122.022;2024-01-25T02:20:01;36.4;;;1.8;;
73421;SDS011;61637;47.760;-122.022;2024-01-25T02:22:04;19.0;;;1.3;;
73421;SDS011;61637;47.760;-122.022;2024-01-25T02:24:01;37.0;;;1.6;;
73421;SDS011;61637;47.760;-122.022;2024-01-25T02:26:01;8.6;;;1.3;;
73421;SDS011;61637;47.760;-122.022;2024-01-25T02:28:01;8.6;;;1.3;;
73421;SDS011;61637;47.760;-122.022;2024-01-25T02:30:01;5.1;;;1.1;;
73421;SDS011;61637;47.760;-122.022;2024-01-25T02:32:01;7.2;;;1.1;;
73421;SDS011;61637;47.760;-122.022;2024-01-25T02:34:01;13.5;;;1.4;;
73421;SDS011;61637;47.760;-122.022;2024-01-25T02:36:01;10.2;;;1.1;;
73421;SDS011;61637;47.760;-122.022;2024-01-25T02:38:01;7.1;;;1.2;;
73421;SDS011;61637;47.760;-122.022;2024-01-25T02:40:01;36.6;;;1.8;;
73421;SDS011;61637;47.760;-122.022;2024-01-25T02:42:01;13.6;;;1.4;;
73421;SDS011;61637;47.760;-122.022;2024-01-25T02:44:01;5.8;;;1.3;;
73421;SDS011;61637;47.760;-122.022;2024-01-25T02:46:01;57.0;;;2.0;;
73421;SDS011;61637;47.760;-122.022;2024-01-25T02:48:01;96.7;;;3.2;;
73421;SDS011;61637;47.760;-122.022;2024-01-25T02:50:01;94.0;;;3.0;;
73421;SDS011;61637;47.760;-122.022;2024-01-25T02:52:02;45.6;;;2.3;;
73421;SDS011;61637;47.760;-122.022;2024-01-25T02:54:01;5.2;;;1.7;;
73421;SDS011;61637;47.760;-122.022;2024-01-25T02:56:01;17.3;;;1.7;;
73421;SDS011;61637;47.760;-122.022;2024-01-25T02:58:01;79.7;;;3.4;;
73421;SDS011;61637;47.760;-122.022;2024-01-25T03:00:01;23.0;;;2.3;;
73421;SDS011;61637;47.760;-122.022;2024-01-25T03:02:01;13.9;;;1.7;;
73421;SDS011;61637;47.760;-122.022;2024-01-25T03:04:01;26.9;;;1.9;;
73421;SDS011;61637;47.760;-122.022;2024-01-25T03:06:03;32.2;;;2.2;;
73421;SDS011;61637;47.760;-122.022;2024-01-25T03:08:01;8.6;;;1.6;;
73421;SDS011;61637;47.760;-122.022;2024-01-25T03:10:01;6.1;;;1.7;;
73421;SDS011;61637;47.760;-122.022;2024-01-25T03:12:01;17.6;;;1.7;;
73421;SDS011;61637;47.760;-122.022;2024-01-25T03:14:01;11.1;;;2.0;;
73421;SDS011;61637;47.760;-122.022;2024-01-25T03:16:01;15.9;;;2.0;;
73421;SDS011;61637;47.760;-122.022;2024-01-25T03:18:01;14.7;;;1.6;;
73421;SDS011;61637;47.760;-122.022;2024-01-25T03:20:01;5.7;;;1.3;;
73421;SDS011;61637;47.760;-122.022;2024-01-25T03:22:01;29.4;;;2.1;;
73421;SDS011;61637;47.760;-122.022;2024-01-25T03:24:01;26.0;;;1.8;;
73421;SDS011;61637;47.760;-122.022;2024-01-25T03:26:02;5.4;;;1.3;;
73421;SDS011;61637;47.760;-122.022;2024-01-25T03:28:01;8.4;;;1.3;;
73421;SDS011;61637;47.760;-122.022;2024-01-25T03:30:01;19.5;;;1.5;;
73421;SDS011;61637;47.760;-122.022;2024-01-25T03:32:01;3.3;;;1.1;;
73421;SDS011;61637;47.760;-122.022;2024-01-25T03:34:01;3.2;;;0.9;;
73421;SDS011;61637;47.760;-122.022;2024-01-25T03:36:02;3.2;;;1.1;;
73421;SDS011;61637;47.760;-122.022;2024-01-25T03:38:01;7.5;;;1.1;;
73421;SDS011;61637;47.760;-122.022;2024-01-25T03:40:01;45.1;;;2.3;;
73421;SDS011;61637;47.760;-122.022;2024-01-25T03:42:01;3.3;;;1.0;;
73421;SDS011;61637;47.760;-122.022;2024-01-25T03:44:01;5.2;;;1.3;;
73421;SDS011;61637;47.760;-122.022;2024-01-25T03:46:01;3.4;;;0.8;;
73421;SDS011;61637;47.760;-122.022;2024-01-25T03:48:01;3.0;;;0.8;;
73421;SDS011;61637;47.760;-122.022;2024-01-25T03:50:01;3.8;;;1.1;;
73421;SDS011;61637;47.760;-122.022;2024-01-25T03:52:01;3.4;;;0.9;;
73421;SDS011;61637;47.760;-122.022;2024-01-25T03:54:01;3.4;;;0.9;;
73421;SDS011;61637;47.760;-122.022;2024-01-25T03:56:01;3.5;;;1.0;;
73421;SDS011;61637;47.760;-122.022;2024-01-25T03:58:01;2.7;;;0.8;;
73421;SDS011;61637;47.760;-122.022;2024-01-25T04:00:01;2.9;;;0.8;;
73421;SDS011;61637;47.760;-122.022;2024-01-25T04:02:01;2.9;;;0.9;;
73421;SDS011;61637;47.760;-122.022;2024-01-25T04:04:01;2.8;;;0.8;;
73421;SDS011;61637;47.760;-122.022;2024-01-25T04:06:01;3.9;;;0.8;;
73421;SDS011;61637;47.760;-122.022;2024-01-25T04:08:01;11.8;;;1.0;;
73421;SDS011;61637;47.760;-122.022;2024-01-25T04:10:01;5.3;;;0.8;;
73421;SDS011;61637;47.760;-122.022;2024-01-25T04:12:01;3.4;;;0.8;;
73421;SDS011;61637;47.760;-122.022;2024-01-25T04:14:01;4.4;;;0.9;;
73421;SDS011;61637;47.760;-122.022;2024-01-25T04:16:01;3.6;;;0.9;;
73421;SDS011;61637;47.760;-122.022;2024-01-25T04:18:01;5.0;;;0.9;;
73421;SDS011;61637;47.760;-122.022;2024-01-25T04:20:01;3.2;;;0.8;;
73421;SDS011;61637;47.760;-122.022;2024-01-25T04:22:01;2.3;;;0.8;;
73421;SDS011;61637;47.760;-122.022;2024-01-25T04:24:01;4.2;;;0.8;;
73421;SDS011;61637;47.760;-122.022;2024-01-25T04:26:01;4.5;;;0.8;;
73421;SDS011;61637;47.760;-122.022;2024-01-25T04:28:01;2.5;;;0.8;;
73421;SDS011;61637;47.760;-122.022;2024-01-25T04:30:02;2.5;;;0.7;;
73421;SDS011;61637;47.760;-122.022;2024-01-25T04:32:01;2.8;;;0.7;;
73421;SDS011;61637;47.760;-122.022;2024-01-25T04:34:01;2.1;;;0.6;;
73421;SDS011;61637;47.760;-122.022;2024-01-25T04:36:01;4.2;;;0.7;;
73421;SDS011;61637;47.760;-122.022;2024-01-25T04:38:01;3.7;;;0.8;;
73421;SDS011;61637;47.760;-122.022;2024-01-25T04:40:01;3.1;;;0.7;;
73421;SDS011;61637;47.760;-122.022;2024-01-25T04:42:01;3.5;;;0.7;;
73421;SDS011;61637;47.760;-122.022;2024-01-25T04:44:01;2.3;;;0.7;;
73421;SDS011;61637;47.760;-122.022;2024-01-25T04:46:01;2.2;;;0.7;;
73421;SDS011;61637;47.760;-122.022;2024-01-25T04:48:01;2.8;;;0.7;;
73421;SDS011;61637;47.760;-122.022;2024-01-25T04:50:01;3.2;;;0.7;;
73421;SDS011;61637;47.760;-122.022;2024-01-25T04:52:01;1.8;;;0.6;;
73421;SDS011;61637;47.760;-122.022;2024-01-25T04:54:01;2.3;;;0.7;;
73421;SDS011;61637;47.760;-122.022;2024-01-25T04:56:01;1.6;;;0.6;;
73421;SDS011;61637;47.760;-122.022;2024-01-25T04:58:01;1.8;;;0.6;;
73421;SDS011;61637;47.760;-122.022;2024-01-25T05:00:02;4.2;;;0.8;;
73421;SDS011;61637;47.760;-122.022;2024-01-25T05:02:01;2.9;;;0.7;;
73421;SDS011;61637;47.760;-122.022;2024-01-25T05:04:01;2.7;;;0.7;;
73421;SDS011;61637;47.760;-122.022;2024-01-25T05:06:01;3.0;;;0.7;;
73421;SDS011;61637;47.760;-122.022;2024-01-25T05:08:01;3.1;;;0.7;;
73421;SDS011;61637;47.760;-122.022;2024-01-25T05:10:02;3.9;;;0.9;;
73421;SDS011;61637;47.760;-122.022;2024-01-25T05:12:01;3.4;;;0.6;;
73421;SDS011;61637;47.760;-122.022;2024-01-25T05:14:01;4.4;;;0.7;;
73421;SDS011;61637;47.760;-122.022;2024-01-25T05:16:01;2.5;;;0.6;;
73421;SDS011;61637;47.760;-122.022;2024-01-25T05:18:02;4.3;;;0.7;;
73421;SDS011;61637;47.760;-122.022;2024-01-25T05:20:01;3.2;;;0.8;;
73421;SDS011;61637;47.760;-122.022;2024-01-25T05:22:01;4.5;;;0.7;;
73421;SDS011;61637;47.760;-122.022;2024-01-25T05:24:01;5.7;;;0.7;;
73421;SDS011;61637;47.760;-122.022;2024-01-25T05:26:01;4.0;;;0.7;;
73421;SDS011;61637;47.760;-122.022;2024-01-25T05:28:01;5.1;;;0.7;;
73421;SDS011;61637;47.760;-122.022;2024-01-25T05:30:01;2.3;;;0.8;;
73421;SDS011;61637;47.760;-122.022;2024-01-25T05:32:01;5.1;;;0.9;;
73421;SDS011;61637;47.760;-122.022;2024-01-25T05:34:01;3.8;;;0.8;;
73421;SDS011;61637;47.760;-122.022;2024-01-25T05:36:01;4.2;;;0.7;;
73421;SDS011;61637;47.760;-122.022;2024-01-25T05:38:01;2.3;;;0.8;;
73421;SDS011;61637;47.760;-122.022;2024-01-25T05:40:01;3.5;;;0.8;;
73421;SDS011;61637;47.760;-122.022;2024-01-25T05:42:01;3.1;;;0.7;;
73421;SDS011;61637;47.760;-122.022;2024-01-25T05:44:01;3.1;;;0.7;;
73421;SDS011;61637;47.760;-122.022;2024-01-25T05:46:01;4.1;;;0.8;;
73421;SDS011;61637;47.760;-122.022;2024-01-25T05:48:01;3.5;;;0.8;;
73421;SDS011;61637;47.760;-122.022;2024-01-25T05:50:01;5.5;;;0.8;;
73421;SDS011;61637;47.760;-122.022;2024-01-25T05:52:01;4.4;;;0.9;;
73421;SDS011;61637;47.760;-122.022;2024-01-25T05:54:01;3.8;;;0.7;;
73421;SDS011;61637;47.760;-122.022;2024-01-25T05:56:01;2.0;;;0.7;;
73421;SDS011;61637;47.760;-122.022;2024-01-25T05:58:01;2.9;;;0.7;;
73421;SDS011;61637;47.760;-122.022;2024-01-25T06:00:01;2.5;;;0.8;;
73421;SDS011;61637;47.760;-122.022;2024-01-25T06:02:01;4.4;;;0.9;;
73421;SDS011;61637;47.760;-122.022;2024-01-25T06:04:01;2.3;;;0.7;;
73421;SDS011;61637;47.760;-122.022;2024-01-25T06:06:01;3.5;;;0.6;;
73421;SDS011;61637;47.760;-122.022;2024-01-25T06:08:01;2.8;;;0.7;;
73421;SDS011;61637;47.760;-122.022;2024-01-25T06:10:01;4.2;;;0.7;;
73421;SDS011;61637;47.760;-122.022;2024-01-25T06:12:01;2.5;;;0.7;;
73421;SDS011;61637;47.760;-122.022;2024-01-25T06:14:01;5.0;;;0.8;;
73421;SDS011;61637;47.760;-122.022;2024-01-25T06:16:01;4.4;;;0.6;;
73421;SDS011;61637;47.760;-122.022;2024-01-25T06:18:01;4.4;;;0.7;;
73421;SDS011;61637;47.760;-122.022;2024-01-25T06:20:01;4.2;;;0.8;;
73421;SDS011;61637;47.760;-122.022;2024-01-25T06:22:03;3.5;;;0.7;;
73421;SDS011;61637;47.760;-122.022;2024-01-25T06:24:01;2.7;;;0.8;;
73421;SDS011;61637;47.760;-122.022;2024-01-25T06:26:01;5.9;;;1.0;;
73421;SDS011;61637;47.760;-122.022;2024-01-25T06:28:01;6.5;;;0.9;;
73421;SDS011;61637;47.760;-122.022;2024-01-25T06:30:01;5.3;;;0.8;;
73421;SDS011;61637;47.760;-122.022;2024-01-25T06:32:01;5.8;;;0.9;;
73421;SDS011;61637;47.760;-122.022;2024-01-25T06:34:01;5.3;;;0.9;;
73421;SDS011;61637;47.760;-122.022;2024-01-25T06:36:01;3.9;;;0.7;;
73421;SDS011;61637;47.760;-122.022;2024-01-25T06:38:01;4.4;;;0.7;;
73421;SDS011;61637;47.760;-122.022;2024-01-25T06:40:01;3.0;;;0.8;;
73421;SDS011;61637;47.760;-122.022;2024-01-25T06:42:01;4.4;;;1.0;;
73421;SDS011;61637;47.760;-122.022;2024-01-25T06:44:01;4.3;;;0.9;;
73421;SDS011;61637;47.760;-122.022;2024-01-25T06:46:01;5.7;;;1.0;;
73421;SDS011;61637;47.760;-122.022;2024-01-25T06:48:02;5.7;;;1.0;;
73421;SDS011;61637;47.760;-122.022;2024-01-25T06:50:01;6.7;;;0.9;;
73421;SDS011;61637;47.760;-122.022;2024-01-25T06:52:01;5.0;;;1.0;;
73421;SDS011;61637;47.760;-122.022;2024-01-25T06:54:01;4.0;;;0.9;;
73421;SDS011;61637;47.760;-122.022;2024-01-25T06:56:01;4.1;;;0.8;;
73421;SDS011;61637;47.760;-122.022;2024-01-25T06:58:01;4.9;;;0.9;;
73421;SDS011;61637;47.760;-122.022;2024-01-25T07:00:01;3.8;;;0.8;;
73421;SDS011;61637;47.760;-122.022;2024-01-25T07:02:01;5.4;;;0.9;;
73421;SDS011;61637;47.760;-122.022;2024-01-25T07:04:01;5.7;;;0.8;;
73421;SDS011;61637;47.760;-122.022;2024-01-25T07:06:01;6.4;;;1.0;;
73421;SDS011;61637;47.760;-122.022;2024-01-25T07:08:01;3.4;;;0.7;;
73421;SDS011;61637;47.760;-122.022;2024-01-25T07:10:01;4.9;;;0.9;;
73421;SDS011;61637;47.760;-122.022;2024-01-25T07:12:01;6.8;;;0.9;;
73421;SDS011;61637;47.760;-122.022;2024-01-25T07:14:01;5.7;;;1.0;;
73421;SDS011;61637;47.760;-122.022;2024-01-25T07:16:01;5.4;;;0.9;;
73421;SDS011;61637;47.760;-122.022;2024-01-25T07:18:01;3.8;;;0.8;;
73421;SDS011;61637;47.760;-122.022;2024-01-25T07:20:01;8.3;;;1.0;;
73421;SDS011;61637;47.760;-122.022;2024-01-25T07:22:01;5.9;;;0.9;;
73421;SDS011;61637;47.760;-122.022;2024-01-25T07:24:02;6.4;;;0.9;;
73421;SDS011;61637;47.760;-122.022;2024-01-25T07:26:01;5.0;;;1.0;;
73421;SDS011;61637;47.760;-122.022;2024-01-25T07:28:01;4.6;;;0.9;;
73421;SDS011;61637;47.760;-122.022;2024-01-25T07:30:01;5.7;;;0.8;;
73421;SDS011;61637;47.760;-122.022;2024-01-25T07:32:02;4.1;;;0.8;;
73421;SDS011;61637;47.760;-122.022;2024-01-25T07:34:01;4.1;;;1.1;;
73421;SDS011;61637;47.760;-122.022;2024-01-25T07:36:01;5.8;;;0.9;;
73421;SDS011;61637;47.760;-122.022;2024-01-25T07:38:01;5.8;;;0.9;;
73421;SDS011;61637;47.760;-122.022;2024-01-25T07:40:01;4.8;;;0.9;;
73421;SDS011;61637;47.760;-122.022;2024-01-25T07:42:01;7.6;;;1.0;;
73421;SDS011;61637;47.760;-122.022;2024-01-25T07:44:01;4.3;;;0.8;;
73421;SDS011;61637;47.760;-122.022;2024-01-25T07:46:01;6.6;;;0.8;;
73421;SDS011;61637;47.760;-122.022;2024-01-25T07:48:01;4.2;;;0.9;;
73421;SDS011;61637;47.760;-122.022;2024-01-25T07:50:01;5.5;;;1.0;;
73421;SDS011;61637;47.760;-122.022;2024-01-25T07:52:01;4.7;;;0.9;;
73421;SDS011;61637;47.760;-122.022;2024-01-25T07:54:01;6.1;;;1.0;;
73421;SDS011;61637;47.760;-122.022;2024-01-25T07:56:01;7.9;;;1.2;;
73421;SDS011;61637;47.760;-122.022;2024-01-25T07:58:01;7.9;;;1.0;;
73421;SDS011;61637;47.760;-122.022;2024-01-25T08:00:01;7.2;;;0.9;;
73421;SDS011;61637;47.760;-122.022;2024-01-25T08:02:01;6.9;;;1.1;;
73421;SDS011;61637;47.760;-122.022;2024-01-25T08:04:01;6.2;;;0.9;;
73421;SDS011;61637;47.760;-122.022;2024-01-25T08:06:02;6.2;;;0.9;;
73421;SDS011;61637;47.760;-122.022;2024-01-25T08:08:01;7.6;;;0.9;;
73421;SDS011;61637;47.760;-122.022;2024-01-25T08:10:01;4.8;;;0.8;;
73421;SDS011;61637;47.760;-122.022;2024-01-25T08:12:01;6.2;;;0.9;;
73421;SDS011;61637;47.760;-122.022;2024-01-25T08:14:01;5.4;;;0.9;;
73421;SDS011;61637;47.760;-122.022;2024-01-25T08:16:01;8.3;;;0.8;;
73421;SDS011;61637;47.760;-122.022;2024-01-25T08:18:01;3.6;;;0.9;;
73421;SDS011;61637;47.760;-122.022;2024-01-25T08:20:01;4.4;;;0.9;;
73421;SDS011;61637;47.760;-122.022;2024-01-25T08:22:01;5.8;;;0.9;;
73421;SDS011;61637;47.760;-122.022;2024-01-25T08:24:01;7.9;;;1.1;;
73421;SDS011;61637;47.760;-122.022;2024-01-25T08:26:01;4.6;;;0.9;;
73421;SDS011;61637;47.760;-122.022;2024-01-25T08:28:01;4.9;;;1.0;;
73421;SDS011;61637;47.760;-122.022;2024-01-25T08:30:01;5.5;;;1.1;;
73421;SDS011;61637;47.760;-122.022;2024-01-25T08:32:01;6.2;;;1.0;;
73421;SDS011;61637;47.760;-122.022;2024-01-25T08:34:01;4.8;;;0.9;;
73421;SDS011;61637;47.760;-122.022;2024-01-25T08:36:01;4.6;;;0.9;;
73421;SDS011;61637;47.760;-122.022;2024-01-25T08:38:01;6.6;;;1.0;;
73421;SDS011;61637;47.760;-122.022;2024-01-25T08:40:01;5.8;;;0.9;;
73421;SDS011;61637;47.760;-122.022;2024-01-25T08:42:01;7.2;;;0.9;;
73421;SDS011;61637;47.760;-122.022;2024-01-25T08:44:01;5.8;;;1.1;;
73421;SDS011;61637;47.760;-122.022;2024-01-25T08:46:01;6.8;;;1.0;;
73421;SDS011;61637;47.760;-122.022;2024-01-25T08:48:01;5.9;;;0.9;;
73421;SDS011;61637;47.760;-122.022;2024-01-25T08:50:01;5.9;;;1.0;;
73421;SDS011;61637;47.760;-122.022;2024-01-25T08:52:01;6.0;;;1.0;;
73421;SDS011;61637;47.760;-122.022;2024-01-25T08:54:01;4.9;;;1.0;;
73421;SDS011;61637;47.760;-122.022;2024-01-25T08:56:01;6.5;;;1.2;;
73421;SDS011;61637;47.760;-122.022;2024-01-25T08:58:01;4.1;;;1.0;;
73421;SDS011;61637;47.760;-122.022;2024-01-25T09:00:01;6.1;;;1.0;;
73421;SDS011;61637;47.760;-122.022;2024-01-25T09:02:01;4.8;;;1.0;;
73421;SDS011;61637;47.760;-122.022;2024-01-25T09:04:01;8.4;;;1.2;;
73421;SDS011;61637;47.760;-122.022;2024-01-25T09:06:01;5.3;;;1.1;;
73421;SDS011;61637;47.760;-122.022;2024-01-25T09:08:01;4.7;;;0.8;;
73421;SDS011;61637;47.760;-122.022;2024-01-25T09:10:01;6.0;;;1.0;;
73421;SDS011;61637;47.760;-122.022;2024-01-25T09:12:01;5.6;;;1.2;;
73421;SDS011;61637;47.760;-122.022;2024-01-25T09:14:01;5.8;;;1.1;;
73421;SDS011;61637;47.760;-122.022;2024-01-25T09:16:01;4.7;;;1.0;;
73421;SDS011;61637;47.760;-122.022;2024-01-25T09:18:01;5.3;;;1.1;;
73421;SDS011;61637;47.760;-122.022;2024-01-25T09:20:01;4.4;;;1.0;;
73421;SDS011;61637;47.760;-122.022;2024-01-25T09:22:03;5.6;;;1.0;;
73421;SDS011;61637;47.760;-122.022;2024-01-25T09:24:01;10.0;;;1.1;;
73421;SDS011;61637;47.760;-122.022;2024-01-25T09:26:01;6.0;;;0.9;;
73421;SDS011;61637;47.760;-122.022;2024-01-25T09:28:02;6.4;;;1.2;;
73421;SDS011;61637;47.760;-122.022;2024-01-25T09:30:01;7.7;;;1.1;;
73421;SDS011;61637;47.760;-122.022;2024-01-25T09:32:01;6.0;;;1.0;;
73421;SDS011;61637;47.760;-122.022;2024-01-25T09:34:01;6.4;;;1.3;;
73421;SDS011;61637;47.760;-122.022;2024-01-25T09:36:01;5.5;;;1.1;;
73421;SDS011;61637;47.760;-122.022;2024-01-25T09:38:01;7.0;;;1.1;;
73421;SDS011;61637;47.760;-122.022;2024-01-25T09:40:01;7.2;;;1.2;;
73421;SDS011;61637;47.760;-122.022;2024-01-25T09:42:03;7.4;;;1.1;;
73421;SDS011;61637;47.760;-122.022;2024-01-25T09:44:01;5.0;;;1.0;;
73421;SDS011;61637;47.760;-122.022;2024-01-25T09:46:02;5.1;;;1.0;;
73421;SDS011;61637;47.760;-122.022;2024-01-25T09:48:01;5.5;;;0.9;;
73421;SDS011;61637;47.760;-122.022;2024-01-25T09:50:01;4.1;;;0.9;;
73421;SDS011;61637;47.760;-122.022;2024-01-25T09:52:03;5.1;;;1.0;;
73421;SDS011;61637;47.760;-122.022;2024-01-25T09:54:03;3.4;;;0.8;;
73421;SDS011;61637;47.760;-122.022;2024-01-25T09:56:07;7.9;;;1.1;;
73421;SDS011;61637;47.760;-122.022;2024-01-25T09:58:01;5.4;;;1.0;;
73421;SDS011;61637;47.760;-122.022;2024-01-25T10:00:01;6.4;;;0.9;;
73421;SDS011;61637;47.760;-122.022;2024-01-25T10:02:03;6.4;;;1.1;;
73421;SDS011;61637;47.760;-122.022;2024-01-25T10:04:01;5.9;;;1.0;;
73421;SDS011;61637;47.760;-122.022;2024-01-25T10:06:01;4.5;;;1.0;;
73421;SDS011;61637;47.760;-122.022;2024-01-25T10:08:01;8.4;;;1.2;;
73421;SDS011;61637;47.760;-122.022;2024-01-25T10:10:01;5.7;;;1.0;;
73421;SDS011;61637;47.760;-122.022;2024-01-25T10:12:01;7.7;;;1.1;;
73421;SDS011;61637;47.760;-122.022;2024-01-25T10:14:01;6.9;;;1.0;;
73421;SDS011;61637;47.760;-122.022;2024-01-25T10:16:01;8.2;;;1.0;;
73421;SDS011;61637;47.760;-122.022;2024-01-25T10:18:01;6.6;;;1.0;;
73421;SDS011;61637;47.760;-122.022;2024-01-25T10:20:04;6.7;;;1.0;;
73421;SDS011;61637;47.760;-122.022;2024-01-25T10:22:01;8.2;;;1.0;;
73421;SDS011;61637;47.760;-122.022;2024-01-25T10:24:01;4.0;;;0.8;;
73421;SDS011;61637;47.760;-122.022;2024-01-25T10:26:01;6.3;;;1.2;;
73421;SDS011;61637;47.760;-122.022;2024-01-25T10:28:01;4.0;;;0.8;;
73421;SDS011;61637;47.760;-122.022;2024-01-25T10:30:01;9.3;;;1.2;;
73421;SDS011;61637;47.760;-122.022;2024-01-25T10:32:02;9.9;;;1.2;;
73421;SDS011;61637;47.760;-122.022;2024-01-25T10:34:02;6.9;;;1.0;;
73421;SDS011;61637;47.760;-122.022;2024-01-25T10:36:01;7.5;;;1.1;;
73421;SDS011;61637;47.760;-122.022;2024-01-25T10:38:02;5.5;;;1.0;;
73421;SDS011;61637;47.760;-122.022;2024-01-25T10:40:02;7.0;;;1.0;;
73421;SDS011;61637;47.760;-122.022;2024-01-25T10:42:01;7.4;;;1.1;;
73421;SDS011;61637;47.760;-122.022;2024-01-25T10:44:01;5.0;;;1.0;;
73421;SDS011;61637;47.760;-122.022;2024-01-25T10:46:02;6.3;;;1.1;;
73421;SDS011;61637;47.760;-122.022;2024-01-25T10:48:01;6.2;;;1.0;;
73421;SDS011;61637;47.760;-122.022;2024-01-25T10:50:02;5.1;;;1.0;;
73421;SDS011;61637;47.760;-122.022;2024-01-25T10:52:01;7.0;;;1.1;;
73421;SDS011;61637;47.760;-122.022;2024-01-25T10:54:02;6.7;;;0.9;;
73421;SDS011;61637;47.760;-122.022;2024-01-25T10:56:02;10.1;;;1.1;;
73421;SDS011;61637;47.760;-122.022;2024-01-25T10:58:01;3.9;;;0.9;;
73421;SDS011;61637;47.760;-122.022;2024-01-25T11:00:02;4.4;;;0.9;;
73421;SDS011;61637;47.760;-122.022;2024-01-25T11:02:01;4.8;;;1.1;;
73421;SDS011;61637;47.760;-122.022;2024-01-25T11:04:01;4.6;;;0.9;;
73421;SDS011;61637;47.760;-122.022;2024-01-25T11:06:09;4.6;;;1.0;;
73421;SDS011;61637;47.760;-122.022;2024-01-25T11:08:01;4.6;;;1.0;;
73421;SDS011;61637;47.760;-122.022;2024-01-25T11:10:01;6.6;;;1.1;;
73421;SDS011;61637;47.760;-122.022;2024-01-25T11:12:01;6.1;;;1.1;;
73421;SDS011;61637;47.760;-122.022;2024-01-25T11:14:01;4.8;;;1.1;;
73421;SDS011;61637;47.760;-122.022;2024-01-25T11:16:12;6.0;;;0.9;;
73421;SDS011;61637;47.760;-122.022;2024-01-25T11:18:02;6.0;;;0.9;;
73421;SDS011;61637;47.760;-122.022;2024-01-25T11:20:02;8.4;;;1.0;;
73421;SDS011;61637;47.760;-122.022;2024-01-25T11:22:03;6.5;;;1.2;;
73421;SDS011;61637;47.760;-122.022;2024-01-25T11:24:02;12.4;;;1.1;;
73421;SDS011;61637;47.760;-122.022;2024-01-25T11:26:01;5.9;;;1.0;;
73421;SDS011;61637;47.760;-122.022;2024-01-25T11:28:02;8.3;;;1.0;;
73421;SDS011;61637;47.760;-122.022;2024-01-25T11:30:02;6.2;;;0.9;;
73421;SDS011;61637;47.760;-122.022;2024-01-25T11:32:03;7.3;;;1.0;;
73421;SDS011;61637;47.760;-122.022;2024-01-25T11:34:01;7.3;;;1.3;;
73421;SDS011;61637;47.760;-122.022;2024-01-25T11:36:01;6.0;;;0.9;;
73421;SDS011;61637;47.760;-122.022;2024-01-25T11:38:01;6.9;;;1.0;;
73421;SDS011;61637;47.760;-122.022;2024-01-25T11:40:01;10.7;;;1.4;;
73421;SDS011;61637;47.760;-122.022;2024-01-25T11:42:01;12.1;;;1.3;;
73421;SDS011;61637;47.760;-122.022;2024-01-25T11:44:02;9.2;;;1.1;;
73421;SDS011;61637;47.760;-122.022;2024-01-25T11:46:01;11.9;;;1.1;;
73421;SDS011;61637;47.760;-122.022;2024-01-25T11:48:01;13.4;;;1.1;;
73421;SDS011;61637;47.760;-122.022;2024-01-25T11:50:02;7.3;;;1.1;;